createdAt,value
2022-08-24T00:01:23.608Z,0.80
2022-08-24T00:04:03.346Z,0.73
2022-08-24T00:06:35.109Z,0.70
2022-08-24T00:09:03.280Z,0.90
2022-08-24T00:11:32.993Z,0.60
2022-08-24T00:14:12.955Z,0.70
2022-08-24T00:16:41.781Z,0.80
2022-08-24T00:19:14.843Z,0.75
2022-08-24T00:21:43.468Z,0.70
2022-08-24T00:24:14.574Z,0.80
2022-08-24T00:26:43.174Z,0.80
2022-08-24T00:29:12.903Z,0.60
2022-08-24T00:31:43.252Z,0.60
2022-08-24T00:34:13.617Z,0.60
2022-08-24T00:36:47.483Z,0.75
2022-08-24T00:39:21.889Z,0.63
2022-08-24T00:41:53.378Z,0.68
2022-08-24T00:44:23.482Z,0.80
2022-08-24T00:47:03.843Z,0.70
2022-08-24T00:49:45.132Z,0.88
2022-08-24T00:52:24.741Z,0.60
2022-08-24T00:55:03.302Z,0.63
2022-08-24T00:57:52.735Z,0.73
2022-08-24T01:00:28.058Z,0.60
2022-08-24T01:03:04.479Z,0.65
2022-08-24T01:05:34.838Z,0.73
2022-08-24T01:08:23.922Z,0.80
2022-08-24T01:11:02.866Z,0.70
2022-08-24T01:13:33.999Z,0.80
2022-08-24T01:16:07.509Z,0.70
2022-08-24T01:18:52.156Z,0.80
2022-08-24T01:21:27.270Z,0.68
2022-08-24T01:23:59.707Z,0.90
2022-08-24T01:26:44.365Z,0.70
2022-08-24T01:29:23.801Z,0.70
2022-08-24T01:31:58.320Z,0.70
2022-08-24T01:34:28.673Z,0.70
2022-08-24T01:36:58.140Z,0.75
2022-08-24T01:39:31.712Z,0.70
2022-08-24T01:42:01.604Z,0.80
2022-08-24T01:44:35.095Z,0.82
2022-08-24T01:47:06.741Z,0.60
2022-08-24T01:49:43.097Z,0.60
2022-08-24T01:52:24.479Z,0.60
2022-08-24T01:55:03.771Z,0.75
2022-08-24T01:57:34.592Z,0.90
2022-08-24T02:00:13.614Z,0.77
2022-08-24T02:02:42.875Z,0.75
2022-08-24T02:05:12.003Z,0.82
2022-08-24T02:07:40.269Z,0.60
2022-08-24T02:10:11.437Z,0.70
2022-08-24T02:12:41.079Z,0.90
2022-08-24T02:15:10.738Z,0.75
2022-08-24T02:17:38.997Z,0.70
2022-08-24T02:20:08.729Z,0.70
2022-08-24T02:22:36.455Z,0.80
2022-08-24T02:25:04.886Z,0.70
2022-08-24T02:27:33.973Z,0.55
2022-08-24T02:30:06.820Z,0.60
2022-08-24T02:32:34.495Z,0.68
2022-08-24T02:35:06.291Z,0.77
2022-08-24T02:37:43.249Z,0.90
2022-08-24T02:40:35.223Z,0.70
2022-08-24T02:43:05.901Z,0.70
2022-08-24T02:45:33.753Z,0.90
2022-08-24T02:48:06.021Z,0.95
2022-08-24T02:50:52.209Z,0.65
2022-08-24T02:53:24.037Z,0.70
2022-08-24T02:55:55.172Z,0.90
2022-08-24T02:58:24.668Z,0.80
2022-08-24T03:00:55.777Z,0.80
2022-08-24T03:03:23.668Z,0.60
2022-08-24T03:06:01.369Z,0.70
2022-08-24T03:08:31.389Z,0.70
2022-08-24T03:11:04.023Z,0.85
2022-08-24T03:13:39.353Z,0.80
2022-08-24T03:16:09.132Z,1.00
2022-08-24T03:18:42.275Z,0.70
2022-08-24T03:21:13.680Z,0.70
2022-08-24T03:23:42.553Z,0.80
2022-08-24T03:26:15.750Z,1.00
2022-08-24T03:28:45.334Z,0.70
2022-08-24T03:31:13.438Z,0.70
2022-08-24T03:33:50.219Z,1.08
2022-08-24T03:36:25.271Z,0.93
2022-08-24T03:38:53.521Z,1.00
2022-08-24T03:41:23.900Z,0.87
2022-08-24T03:44:01.086Z,0.80
2022-08-24T03:46:42.222Z,0.90
2022-08-24T03:49:14.895Z,1.00
2022-08-24T03:51:43.844Z,0.80
2022-08-24T03:54:15.323Z,0.93
2022-08-24T03:56:43.700Z,0.75
2022-08-24T03:59:24.095Z,1.00
2022-08-24T04:01:56.029Z,0.90
2022-08-24T04:04:25.553Z,0.73
2022-08-24T04:06:54.094Z,1.00
2022-08-24T04:09:23.972Z,0.95
2022-08-24T04:11:53.562Z,0.95
2022-08-24T04:14:29.581Z,1.17
2022-08-24T04:16:58.159Z,1.00
2022-08-24T04:19:33.582Z,0.88
2022-08-24T04:22:04.141Z,0.82
2022-08-24T04:24:31.959Z,1.10
2022-08-24T04:27:02.345Z,0.80
2022-08-24T04:29:34.158Z,0.90
2022-08-24T04:32:03.836Z,1.00
2022-08-24T04:34:33.706Z,0.93
2022-08-24T04:37:07.499Z,1.10
2022-08-24T04:39:42.317Z,0.90
2022-08-24T04:42:14.028Z,0.70
2022-08-24T04:44:45.628Z,0.90
2022-08-24T04:47:14.205Z,0.90
2022-08-24T04:49:44.052Z,0.90
2022-08-24T04:52:13.813Z,0.73
2022-08-24T04:55:01.630Z,0.80
2022-08-24T04:57:35.866Z,0.95
2022-08-24T05:00:12.476Z,0.90
2022-08-24T05:02:45.158Z,0.90
2022-08-24T05:05:23.932Z,0.80
2022-08-24T05:07:56.020Z,0.75
2022-08-24T05:10:26.087Z,0.82
2022-08-24T05:13:04.580Z,0.85
2022-08-24T05:15:53.491Z,0.70
2022-08-24T05:18:22.661Z,0.70
2022-08-24T05:20:53.437Z,0.82
2022-08-24T05:23:24.098Z,0.80
2022-08-24T05:25:52.666Z,0.95
2022-08-24T05:28:23.887Z,0.80
2022-08-24T05:31:12.775Z,0.90
2022-08-24T05:33:53.583Z,0.70
2022-08-24T05:36:23.740Z,0.80
2022-08-24T05:38:53.475Z,0.90
2022-08-24T05:41:21.904Z,0.88
2022-08-24T05:43:50.150Z,1.85
2022-08-24T05:46:19.638Z,1.70
2022-08-24T05:48:53.001Z,1.50
2022-08-24T05:51:23.855Z,1.50
2022-08-24T05:53:51.658Z,1.10
2022-08-24T05:56:20.797Z,1.60
2022-08-24T05:58:49.013Z,1.50
2022-08-24T06:01:21.889Z,1.58
2022-08-24T06:03:50.800Z,1.33
2022-08-24T06:06:20.505Z,1.95
2022-08-24T06:08:57.872Z,1.80
2022-08-24T06:11:32.559Z,1.90
2022-08-24T06:14:14.562Z,1.80
2022-08-24T06:16:46.159Z,1.80
2022-08-24T06:19:19.956Z,1.50
2022-08-24T06:21:52.865Z,2.20
2022-08-24T06:24:45.351Z,2.35
2022-08-24T06:27:21.901Z,2.05
2022-08-24T06:29:50.999Z,2.20
2022-08-24T06:32:24.026Z,2.60
2022-08-24T06:34:58.284Z,2.30
2022-08-24T06:37:40.139Z,2.13
2022-08-24T06:40:13.943Z,2.42
2022-08-24T06:42:44.462Z,2.30
2022-08-24T06:45:15.141Z,2.75
2022-08-24T06:48:13.898Z,2.28
2022-08-24T06:50:41.689Z,2.45
2022-08-24T06:53:14.953Z,2.33
2022-08-24T06:55:51.761Z,2.50
2022-08-24T06:58:35.676Z,1.98
2022-08-24T07:01:25.848Z,1.98
2022-08-24T07:04:01.182Z,1.80
2022-08-24T07:06:37.768Z,1.70
2022-08-24T07:09:05.693Z,1.63
2022-08-24T07:11:35.086Z,1.70
2022-08-24T07:14:04.448Z,1.70
2022-08-24T07:16:34.058Z,1.92
2022-08-24T07:19:14.112Z,1.60
2022-08-24T07:21:42.321Z,1.58
2022-08-24T07:24:14.024Z,2.10
2022-08-24T07:26:58.886Z,1.80
2022-08-24T07:29:47.327Z,1.77
2022-08-24T07:32:28.818Z,1.60
2022-08-24T07:35:03.258Z,1.35
2022-08-24T07:37:41.536Z,1.60
2022-08-24T07:40:48.964Z,1.70
2022-08-24T07:43:24.170Z,1.40
2022-08-24T07:45:54.367Z,1.17
2022-08-24T07:48:25.229Z,1.10
2022-08-24T07:50:54.454Z,1.15
2022-08-24T07:53:27.876Z,1.52
2022-08-24T07:56:04.775Z,1.40
2022-08-24T07:58:35.301Z,2.13
2022-08-24T08:01:25.607Z,1.83
2022-08-24T08:03:54.889Z,1.80
2022-08-24T08:06:25.705Z,2.00
2022-08-24T08:08:55.843Z,2.08
2022-08-24T08:11:33.811Z,2.00
2022-08-24T08:14:04.708Z,1.90
2022-08-24T08:16:35.739Z,1.63
2022-08-24T08:19:17.139Z,1.60
2022-08-24T08:22:06.311Z,1.77
2022-08-24T08:24:35.153Z,1.75
2022-08-24T08:27:14.437Z,1.70
2022-08-24T08:29:46.022Z,1.83
2022-08-24T08:32:24.915Z,1.40
2022-08-24T08:35:02.240Z,1.55
2022-08-24T08:40:45.016Z,1.50
2022-08-24T08:43:34.435Z,1.10
2022-08-24T08:46:40.116Z,0.70
2022-08-24T08:49:34.807Z,1.00
2022-08-24T08:52:44.475Z,0.93
2022-08-24T08:55:34.285Z,0.90
2022-08-24T08:58:34.088Z,1.20
2022-08-24T09:01:14.546Z,0.80
2022-08-24T09:04:25.162Z,0.90
2022-08-24T09:07:17.123Z,0.80
2022-08-24T09:10:33.873Z,1.10
2022-08-24T09:13:24.606Z,0.90
2022-08-24T09:16:21.175Z,0.90
2022-08-24T09:19:15.979Z,0.90
2022-08-24T09:22:04.174Z,0.80
2022-08-24T09:25:03.022Z,0.90
2022-08-24T09:27:46.402Z,0.90
2022-08-24T09:30:33.201Z,0.85
2022-08-24T09:33:10.661Z,0.68
2022-08-24T09:36:12.261Z,0.75
2022-08-24T09:39:05.789Z,0.60
2022-08-24T09:42:12.998Z,0.70
2022-08-24T09:45:13.270Z,0.60
2022-08-24T09:48:15.654Z,0.50
2022-08-24T09:51:37.142Z,0.80
2022-08-24T09:54:58.550Z,0.75
2022-08-24T09:58:03.148Z,0.60
2022-08-24T10:00:43.733Z,0.50
2022-08-24T10:03:52.269Z,0.55
2022-08-24T10:06:54.754Z,0.70
2022-08-24T10:10:04.643Z,0.63
2022-08-24T10:12:56.145Z,0.68
2022-08-24T10:15:33.867Z,0.80
2022-08-24T10:18:43.056Z,0.80
2022-08-24T10:21:24.865Z,0.70
2022-08-24T10:24:26.635Z,0.70
2022-08-24T10:27:22.659Z,0.93
2022-08-24T10:30:34.902Z,0.70
2022-08-24T10:33:14.795Z,0.85
2022-08-24T10:36:22.190Z,0.98
2022-08-24T10:39:19.813Z,0.75
2022-08-24T10:42:49.657Z,0.80
2022-08-24T10:45:54.695Z,1.00
2022-08-24T10:48:54.125Z,0.90
2022-08-24T10:51:44.884Z,1.10
2022-08-24T10:54:24.667Z,1.10
2022-08-24T10:57:11.560Z,0.90
2022-08-24T10:59:54.993Z,1.08
2022-08-24T11:02:43.669Z,0.85
2022-08-24T11:05:24.950Z,1.10
2022-08-24T11:08:03.537Z,1.08
2022-08-24T11:10:43.703Z,1.00
2022-08-24T11:13:26.794Z,0.80
2022-08-24T11:16:15.009Z,1.00
2022-08-24T11:18:56.970Z,1.05
2022-08-24T11:21:53.479Z,1.17
2022-08-24T11:24:40.307Z,1.10
2022-08-24T11:27:26.662Z,1.00
2022-08-24T11:30:03.920Z,0.75
2022-08-24T11:32:46.901Z,1.10
2022-08-24T11:35:26.530Z,1.20
2022-08-24T11:37:56.962Z,1.10
2022-08-24T11:40:30.253Z,1.23
2022-08-24T11:43:20.109Z,1.60
2022-08-24T11:46:02.550Z,1.20
2022-08-24T11:48:55.045Z,1.23
2022-08-24T11:51:36.660Z,1.00
2022-08-24T11:54:27.773Z,1.20
2022-08-24T11:57:16.091Z,1.33
2022-08-24T12:00:12.578Z,1.00
2022-08-24T12:03:04.413Z,1.20
2022-08-24T12:05:54.869Z,1.20
2022-08-24T12:08:34.711Z,1.15
2022-08-24T12:11:16.212Z,1.30
2022-08-24T12:13:54.911Z,1.42
2022-08-24T12:16:36.858Z,1.30
2022-08-24T12:19:23.808Z,1.50
2022-08-24T12:21:58.912Z,1.75
2022-08-24T12:24:55.431Z,1.27
2022-08-24T12:27:36.926Z,1.20
2022-08-24T12:30:13.912Z,1.10
2022-08-24T12:32:54.602Z,1.45
2022-08-24T12:35:33.809Z,1.52
2022-08-24T12:38:15.510Z,1.77
2022-08-24T12:40:57.639Z,1.23
2022-08-24T12:43:34.874Z,1.48
2022-08-24T12:46:06.848Z,1.10
2022-08-24T12:48:46.299Z,1.10
2022-08-24T12:51:35.781Z,1.00
2022-08-24T12:54:25.411Z,1.10
2022-08-24T12:57:25.643Z,1.20
2022-08-24T13:00:22.598Z,1.00
2022-08-24T13:03:04.251Z,1.25
2022-08-24T13:05:54.956Z,1.33
2022-08-24T13:08:46.089Z,0.98
2022-08-24T13:11:35.115Z,1.15
2022-08-24T13:14:18.640Z,1.13
2022-08-24T13:17:23.667Z,0.95
2022-08-24T13:20:22.477Z,1.23
2022-08-24T13:23:15.755Z,1.17
2022-08-24T13:26:04.644Z,1.20
2022-08-24T13:28:55.643Z,1.20
2022-08-24T13:31:34.875Z,1.15
2022-08-24T13:34:55.862Z,1.20
2022-08-24T13:37:44.000Z,0.95
2022-08-24T13:40:28.161Z,1.17
2022-08-24T13:43:15.360Z,1.10
2022-08-24T13:45:57.210Z,1.30
2022-08-24T13:48:45.494Z,1.20
2022-08-24T13:51:34.757Z,1.30
2022-08-24T13:54:37.148Z,1.38
2022-08-24T13:57:36.817Z,1.23
2022-08-24T14:00:45.464Z,1.42
2022-08-24T14:03:33.997Z,1.00
2022-08-24T14:06:36.565Z,1.17
2022-08-24T14:09:27.380Z,1.58
2022-08-24T14:12:24.926Z,0.95
2022-08-24T14:15:09.087Z,1.20
2022-08-24T14:17:55.480Z,1.15
2022-08-24T14:20:54.862Z,1.00
2022-08-24T14:23:56.307Z,1.10
2022-08-24T14:27:25.431Z,1.02
2022-08-24T14:30:35.470Z,0.90
2022-08-24T14:33:27.305Z,0.90
2022-08-24T14:36:26.358Z,1.30
2022-08-24T14:39:15.408Z,1.30
2022-08-24T14:42:06.086Z,1.10
2022-08-24T14:45:06.612Z,1.20
2022-08-24T14:48:11.968Z,1.23
2022-08-24T14:51:03.870Z,1.10
2022-08-24T14:53:58.042Z,1.17
2022-08-24T14:57:07.228Z,1.10
2022-08-24T15:00:03.092Z,1.38
2022-08-24T15:03:17.131Z,1.20
2022-08-24T15:06:26.733Z,1.10
2022-08-24T15:09:14.295Z,1.33
2022-08-24T15:11:51.290Z,1.30
2022-08-24T15:14:37.258Z,1.13
2022-08-24T15:17:15.551Z,1.15
2022-08-24T15:19:52.981Z,1.40
2022-08-24T15:22:30.182Z,1.38
2022-08-24T15:25:16.054Z,1.17
2022-08-24T15:28:15.702Z,1.38
2022-08-24T15:31:00.927Z,1.77
2022-08-24T15:33:45.178Z,1.55
2022-08-24T15:36:23.070Z,1.80
2022-08-24T15:38:54.098Z,1.30
2022-08-24T15:41:35.531Z,1.17
2022-08-24T15:44:21.384Z,1.20
2022-08-24T15:46:58.064Z,1.20
2022-08-24T15:49:42.827Z,1.33
2022-08-24T15:52:41.280Z,1.42
2022-08-24T15:55:17.524Z,1.30
2022-08-24T15:57:46.435Z,1.30
2022-08-24T16:00:44.733Z,1.20
2022-08-24T16:03:35.069Z,1.20
2022-08-24T16:06:25.971Z,1.30
2022-08-24T16:09:05.187Z,1.25
2022-08-24T16:11:43.013Z,1.20
2022-08-24T16:14:27.629Z,1.40
2022-08-24T16:17:07.564Z,1.20
2022-08-24T16:19:36.494Z,1.10
2022-08-24T16:22:26.374Z,1.15
2022-08-24T16:25:17.690Z,1.33
2022-08-24T16:28:05.546Z,1.17
2022-08-24T16:30:45.523Z,1.08
2022-08-24T16:33:55.399Z,1.10
2022-08-24T16:36:33.209Z,1.20
2022-08-24T16:39:06.673Z,1.33
2022-08-24T16:41:41.357Z,1.50
2022-08-24T16:44:14.177Z,1.48
2022-08-24T16:46:48.175Z,1.55
2022-08-24T16:49:17.012Z,1.27
2022-08-24T16:51:46.700Z,1.40
2022-08-24T16:54:15.718Z,1.30
2022-08-24T16:56:46.308Z,1.30
2022-08-24T16:59:24.746Z,1.48
2022-08-24T17:01:56.668Z,1.58
2022-08-24T17:04:26.525Z,1.52
2022-08-24T17:07:05.956Z,1.45
2022-08-24T17:09:43.118Z,1.40
2022-08-24T17:12:17.333Z,1.50
2022-08-24T17:14:53.192Z,1.48
2022-08-24T17:17:25.482Z,1.27
2022-08-24T17:19:56.789Z,1.50
2022-08-24T17:22:33.551Z,1.58
2022-08-24T17:25:06.308Z,1.70
2022-08-24T17:27:35.893Z,1.48
2022-08-24T17:30:07.147Z,1.60
2022-08-24T17:32:36.001Z,1.30
2022-08-24T17:35:15.327Z,1.67
2022-08-24T17:37:50.240Z,1.42
2022-08-24T17:40:26.733Z,1.50
2022-08-24T17:42:55.982Z,1.65
2022-08-24T17:45:26.018Z,1.92
2022-08-24T17:48:04.462Z,1.50
2022-08-24T17:50:35.015Z,1.30
2022-08-24T17:53:14.446Z,1.30
2022-08-24T17:55:45.090Z,1.63
2022-08-24T17:58:17.160Z,1.70
2022-08-24T18:00:48.037Z,1.63
2022-08-24T18:03:17.284Z,1.55
2022-08-24T18:05:47.006Z,1.65
2022-08-24T18:08:16.953Z,1.70
2022-08-24T18:10:46.155Z,1.63
2022-08-24T18:13:16.110Z,1.50
2022-08-24T18:15:44.986Z,1.52
2022-08-24T18:18:16.766Z,1.52
2022-08-24T18:20:45.763Z,1.55
2022-08-24T18:23:21.303Z,2.00
2022-08-24T18:25:56.107Z,1.42
2022-08-24T18:28:24.291Z,1.70
2022-08-24T18:30:59.932Z,2.30
2022-08-24T18:33:29.408Z,1.45
2022-08-24T18:35:58.650Z,1.80
2022-08-24T18:38:32.425Z,1.90
2022-08-24T18:41:05.809Z,1.92
2022-08-24T18:43:36.579Z,1.80
2022-08-24T18:46:06.132Z,2.10
2022-08-24T18:48:34.026Z,2.45
2022-08-24T18:51:06.721Z,2.30
2022-08-24T18:53:36.796Z,2.25
2022-08-24T18:56:11.791Z,2.00
2022-08-24T18:58:45.657Z,2.20
2022-08-24T19:01:13.905Z,1.90
2022-08-24T19:03:45.757Z,1.50
2022-08-24T19:06:16.464Z,2.00
2022-08-24T19:08:45.477Z,2.13
2022-08-24T19:11:14.276Z,1.70
2022-08-24T19:13:41.974Z,1.52
2022-08-24T19:16:09.709Z,1.80
2022-08-24T19:18:37.443Z,2.00
2022-08-24T19:21:05.104Z,2.13
2022-08-24T19:23:36.466Z,1.95
2022-08-24T19:26:05.933Z,2.30
2022-08-24T19:28:33.704Z,2.28
2022-08-24T19:31:03.967Z,2.45
2022-08-24T19:33:41.498Z,2.72
2022-08-24T19:36:12.676Z,2.45
2022-08-24T19:38:45.731Z,2.28
2022-08-24T19:41:20.105Z,2.40
2022-08-24T19:44:23.567Z,2.38
2022-08-24T19:46:57.293Z,2.97
2022-08-24T19:49:25.191Z,2.72
2022-08-24T19:51:53.732Z,2.65
2022-08-24T19:54:21.833Z,2.40
2022-08-24T19:56:54.222Z,2.55
2022-08-24T19:59:27.532Z,2.63
2022-08-24T20:01:55.330Z,2.80
2022-08-24T20:04:26.160Z,3.30
2022-08-24T20:06:56.616Z,2.80
2022-08-24T20:09:28.822Z,2.53
2022-08-24T20:11:57.843Z,3.40
2022-08-24T20:14:26.327Z,2.85
2022-08-24T20:16:56.996Z,2.33
2022-08-24T20:19:26.273Z,2.95
2022-08-24T20:21:56.336Z,2.97
2022-08-24T20:24:27.134Z,2.78
2022-08-24T20:27:04.946Z,3.15
2022-08-24T20:29:36.254Z,3.53
2022-08-24T20:32:06.391Z,3.25
2022-08-24T20:34:35.848Z,3.20
2022-08-24T20:37:06.554Z,3.38
2022-08-24T20:39:36.797Z,4.20
2022-08-24T20:42:14.875Z,3.90
2022-08-24T20:44:49.662Z,3.88
2022-08-24T20:47:30.429Z,3.50
2022-08-24T20:50:01.748Z,3.55
2022-08-24T20:52:29.601Z,3.65
2022-08-24T20:54:57.428Z,3.92
2022-08-24T20:57:26.582Z,4.20
2022-08-24T20:59:54.247Z,4.43
2022-08-24T21:02:22.058Z,3.72
2022-08-24T21:04:49.771Z,3.88
2022-08-24T21:07:17.480Z,4.50
2022-08-24T21:09:45.154Z,4.25
2022-08-24T21:12:12.963Z,4.45
2022-08-24T21:14:42.514Z,4.82
2022-08-24T21:17:11.178Z,4.65
2022-08-24T21:19:39.889Z,4.93
2022-08-24T21:22:08.870Z,4.50
2022-08-24T21:24:37.749Z,4.40
2022-08-24T21:27:17.376Z,4.40
2022-08-24T21:29:48.888Z,4.57
2022-08-24T21:32:35.344Z,4.85
2022-08-24T21:35:07.426Z,3.78
2022-08-24T21:37:36.585Z,3.95
2022-08-24T21:40:16.117Z,4.25
2022-08-24T21:42:46.695Z,3.95
2022-08-24T21:45:18.341Z,4.00
2022-08-24T21:47:46.424Z,4.68
2022-08-24T21:50:25.462Z,3.65
2022-08-24T21:53:01.836Z,3.53
2022-08-24T21:55:35.065Z,3.83
2022-08-24T21:58:06.836Z,4.38
2022-08-24T22:00:38.447Z,4.00
2022-08-24T22:03:08.471Z,4.20
2022-08-24T22:05:40.183Z,3.97
2022-08-24T22:08:08.269Z,4.47
2022-08-24T22:10:36.767Z,4.22
2022-08-24T22:13:07.040Z,4.40
2022-08-24T22:15:40.550Z,4.43
2022-08-24T22:18:15.214Z,4.85
2022-08-24T22:20:46.354Z,4.28
2022-08-24T22:23:14.126Z,4.57
2022-08-24T22:25:46.848Z,4.65
2022-08-24T22:28:16.560Z,4.20
2022-08-24T22:30:52.168Z,4.43
2022-08-24T22:33:27.075Z,5.53
2022-08-24T22:36:02.027Z,5.05
2022-08-24T22:38:33.695Z,4.80
2022-08-24T22:41:06.795Z,4.50
2022-08-24T22:43:55.080Z,4.93
2022-08-24T22:46:34.228Z,5.35
2022-08-24T22:49:07.324Z,5.95
2022-08-24T22:51:37.153Z,5.70
2022-08-24T22:54:06.893Z,5.65
2022-08-24T22:56:46.201Z,5.90
2022-08-24T22:59:22.915Z,5.50
2022-08-24T23:01:58.274Z,6.03
2022-08-24T23:04:39.842Z,6.05
2022-08-24T23:07:16.372Z,6.82
2022-08-24T23:09:47.452Z,6.07
2022-08-24T23:12:17.776Z,6.63
2022-08-24T23:14:55.011Z,6.53
2022-08-24T23:17:28.062Z,6.78
2022-08-24T23:20:05.221Z,6.30
2022-08-24T23:22:38.581Z,7.35
2022-08-24T23:25:07.935Z,6.47
2022-08-24T23:27:38.273Z,7.20
2022-08-24T23:30:14.934Z,7.60
2022-08-24T23:32:47.544Z,7.28
2022-08-24T23:35:16.553Z,7.75
2022-08-24T23:37:46.511Z,7.95
2022-08-24T23:40:15.794Z,8.05
2022-08-24T23:42:47.559Z,8.02
2022-08-24T23:45:20.331Z,7.38
2022-08-24T23:47:58.485Z,8.25
2022-08-24T23:50:26.553Z,8.25
2022-08-24T23:53:02.109Z,7.93
2022-08-24T23:55:52.560Z,8.43
2022-08-24T23:58:25.232Z,7.57
